Lionhead Wind

STATION DOWN FOR SEASON

Located west of Lionhead Ridge near West Yellowstone. Same location as GNFAC station that reports snow depth, temp and RH which has data HERE. This data is also available to view at dataGarrison.com.

Elevation
8775ft
Jump to table bottom
Date Time Temperature
deg F
RH, % Wind Speed Wind Gust Wind Direction
10/21/21 07:08 44.3 56 0 3 S - 184
10/21/21 06:08 44.7 66 0 3 S - 175
10/21/21 05:08 43.5 67 0 1 S - 177
10/21/21 04:08 41.7 68 0 1 S - 177
10/21/21 03:08 40.5 69 0 1 S - 177
10/21/21 02:08 39.8 69 0 1 S - 177
10/21/21 01:08 40.3 70 0 1 S - 177
10/21/21 00:08 39.0 69 0 1 S - 177
10/20/21 23:08 40.4 68 0 1 S - 177
10/20/21 22:08 40.4 69 0 1 S - 177
10/20/21 21:08 41.4 66 0 1 S - 177
10/20/21 20:08 43.5 66 0 1 S - 177
10/20/21 19:08 43.4 64 0 0 S - 177
10/20/21 18:08 46.6 56 0 0 S - 177
10/20/21 17:08 53.4 48 0 0 S - 177
10/20/21 16:08 54.5 49 0 0 S - 177
10/20/21 15:08 54.4 46 0 1 S - 177
10/20/21 14:08 55.5 43 0 0 S - 177
10/20/21 13:08 57.5 41 0 1 S - 177
10/20/21 12:08 62.4 43 0 0 S - 177
10/20/21 11:08 57.5 50 0 0 S - 177
10/20/21 10:08 56.4 58 0 0 S - 177